Time;durP1;ratioP1;P1;durP2;ratioP2;P2;SDS_P1;SDS_P2;PMS_P1;PMS_P2;Temp;Humidity;BMP_temperature;BMP_pressure;BME280_temperature;BME280_humidity;BME280_pressure;Samples;Min_cycle;Max_cycle;Signal;HPM_P1;HPM_P2
2021/12/02 00:01:16;;;;;;;1.60;1.10;;;;;;;-1.19;56.22;98602.33;24532;1354;3052070;-75
2021/12/02 00:03:46;;;;;;;1.60;1.00;;;;;;;-1.26;55.88;98607.67;24491;1348;3026090;-73
2021/12/02 00:06:17;;;;;;;2.80;1.50;;;;;;;-1.15;56.14;98605.50;24538;1351;3027484;-75
2021/12/02 00:08:47;;;;;;;3.20;1.00;;;;;;;-1.17;55.28;98599.71;24521;1354;3027202;-71
2021/12/02 00:11:16;;;;;;;2.10;1.40;;;;;;;-1.13;55.43;98601.49;24573;1356;3026935;-73
2021/12/02 00:14:09;;;;;;;1.80;1.00;;;;;;;-1.07;55.22;98609.92;24490;1351;3029063;-73
2021/12/02 00:16:40;;;;;;;2.00;1.00;;;;;;;-1.05;55.05;98624.48;24516;1358;3052233;-72
2021/12/02 00:22:01;;;;;;;1.50;1.20;;;;;;;-1.24;54.37;98633.77;24520;1355;3054743;-73
2021/12/02 00:24:35;;;;;;;1.50;0.80;;;;;;;-1.16;54.73;98641.79;24491;1352;3026638;-71
2021/12/02 00:27:06;;;;;;;2.30;1.10;;;;;;;-1.23;54.28;98647.64;24528;1354;3048170;-72
2021/12/02 00:29:36;;;;;;;2.20;1.00;;;;;;;-1.15;54.56;98640.05;24507;1351;3027133;-70
2021/12/02 00:32:07;;;;;;;3.10;1.20;;;;;;;-1.22;54.08;98636.42;24540;1352;3026631;-73
2021/12/02 00:34:38;;;;;;;2.50;1.30;;;;;;;-1.30;54.10;98638.52;24491;1352;3027059;-71
2021/12/02 00:37:09;;;;;;;2.10;1.20;;;;;;;-1.32;54.29;98641.17;24515;1351;3026152;-71
2021/12/02 00:39:38;;;;;;;2.70;2.10;;;;;;;-1.23;54.30;98643.15;24501;1355;3027568;-67
2021/12/02 00:42:12;;;;;;;2.90;1.60;;;;;;;-1.28;54.17;98647.77;24522;1352;3058488;-70
2021/12/02 00:44:42;;;;;;;3.20;1.90;;;;;;;-1.30;54.25;98655.21;24525;1351;3026291;-75
2021/12/02 00:47:12;;;;;;;2.40;1.70;;;;;;;-1.30;54.33;98666.02;24496;1351;3026561;-73
2021/12/02 00:49:43;;;;;;;2.20;1.50;;;;;;;-1.29;54.24;98665.82;24500;1354;3054420;-68
2021/12/02 00:52:12;;;;;;;2.60;1.40;;;;;;;-1.29;53.97;98659.83;24567;1352;3026605;-73
2021/12/02 00:54:42;;;;;;;2.80;1.50;;;;;;;-1.25;53.80;98664.86;24474;1355;3026679;-70
2021/12/02 00:57:12;;;;;;;3.70;1.60;;;;;;;-1.36;53.18;98675.47;24537;1353;3027437;-69
2021/12/02 00:59:41;;;;;;;2.80;1.50;;;;;;;-1.44;53.08;98672.91;24512;1351;3026386;-72
2021/12/02 01:02:11;;;;;;;3.20;1.40;;;;;;;-1.39;53.23;98673.99;24476;1355;3026768;-72
2021/12/02 01:04:40;;;;;;;1.90;1.10;;;;;;;-1.25;52.95;98669.69;24477;1355;3053321;-72
2021/12/02 01:07:09;;;;;;;2.80;1.60;;;;;;;-1.25;52.67;98668.83;24479;1352;3026400;-74
2021/12/02 01:09:39;;;;;;;3.50;1.90;;;;;;;-1.29;52.96;98670.63;24507;1351;3054584;-69
2021/12/02 01:12:08;;;;;;;4.40;1.30;;;;;;;-1.32;52.69;98676.91;24464;1355;3027136;-69
2021/12/02 01:14:36;;;;;;;3.30;1.80;;;;;;;-1.35;52.54;98680.08;24494;1351;3049329;-73
2021/12/02 01:17:06;;;;;;;4.60;1.30;;;;;;;-1.31;52.62;98679.63;24517;1352;3026326;-73
2021/12/02 01:19:35;;;;;;;2.80;1.30;;;;;;;-1.27;52.84;98681.41;24535;1355;3026256;-73
2021/12/02 01:22:04;;;;;;;2.80;1.40;;;;;;;-1.19;52.77;98689.98;24514;1352;3049157;-73
2021/12/02 01:24:34;;;;;;;3.70;1.80;;;;;;;-1.25;52.76;98688.76;24470;1352;3027562;-75
2021/12/02 01:27:06;;;;;;;3.30;1.50;;;;;;;-1.24;52.45;98686.84;24519;1352;3026585;-71
2021/12/02 01:29:35;;;;;;;3.20;1.60;;;;;;;-1.13;52.93;98692.42;24498;1355;3027577;-70
2021/12/02 01:32:07;;;;;;;5.50;1.90;;;;;;;-1.09;52.86;98688.36;24462;1357;3026559;-70
2021/12/02 01:34:36;;;;;;;4.50;2.10;;;;;;;-1.11;53.37;98680.52;24511;1358;3026701;-69
2021/12/02 01:37:09;;;;;;;8.40;3.10;;;;;;;-1.18;53.88;98683.26;24568;1357;3030700;-72
2021/12/02 01:39:39;;;;;;;10.50;5.20;;;;;;;-1.14;54.51;98683.67;24494;1352;3048506;-71
2021/12/02 01:42:11;;;;;;;16.00;5.90;;;;;;;-1.09;55.27;98688.35;24495;1352;3026469;-69
2021/12/02 01:44:41;;;;;;;14.80;6.00;;;;;;;-1.03;55.35;98688.89;24551;1352;3026545;-68
2021/12/02 01:47:14;;;;;;;13.60;5.90;;;;;;;-1.08;55.57;98688.14;24355;1352;3026339;-69
2021/12/02 01:49:43;;;;;;;11.80;5.10;;;;;;;-1.11;55.71;98689.10;24512;1352;3031014;-69
2021/12/02 01:52:14;;;;;;;13.00;5.10;;;;;;;-1.06;55.62;98693.95;24464;1351;3026411;-73
2021/12/02 01:54:44;;;;;;;11.40;5.60;;;;;;;-1.09;55.68;98692.13;24530;1351;3026635;-73
2021/12/02 01:57:28;;;;;;;8.50;4.00;;;;;;;-1.05;55.85;98704.23;24522;1355;3027262;-73
2021/12/02 02:00:21;;;;;;;14.90;5.60;;;;;;;-0.99;55.64;98704.08;24513;1356;3051813;-71
2021/12/02 02:02:50;;;;;;;12.00;5.10;;;;;;;-1.02;56.11;98696.77;24545;1358;3054985;-67
2021/12/02 02:05:19;;;;;;;10.70;4.70;;;;;;;-0.95;56.00;98694.53;24470;1352;3026411;-67
2021/12/02 02:07:57;;;;;;;17.80;5.50;;;;;;;-0.96;56.29;98696.45;24529;1358;3052111;-73
2021/12/02 02:10:27;;;;;;;12.30;4.60;;;;;;;-0.99;56.87;98698.58;24514;1350;3051867;-75
2021/12/02 02:12:58;;;;;;;11.00;4.80;;;;;;;-1.13;57.89;98699.96;24495;1355;3026401;-70
2021/12/02 02:15:28;;;;;;;9.90;5.00;;;;;;;-1.20;58.91;98707.88;24526;1355;3027430;-73
2021/12/02 02:17:59;;;;;;;10.50;4.50;;;;;;;-1.13;59.12;98708.73;24488;1351;3026277;-73
2021/12/02 02:21:03;;;;;;;14.50;5.50;;;;;;;-1.11;59.58;98709.05;24534;1355;3053471;-71
2021/12/02 02:23:35;;;;;;;8.80;3.70;;;;;;;-1.30;60.78;98717.92;24517;1352;3058535;-70
2021/12/02 02:26:05;;;;;;;11.20;4.30;;;;;;;-1.30;61.22;98715.52;24489;1355;3026669;-72
2021/12/02 02:28:34;;;;;;;8.80;3.20;;;;;;;-1.44;61.90;98718.94;24523;1348;3026449;-69
2021/12/02 02:31:04;;;;;;;6.90;2.70;;;;;;;-1.45;62.12;98718.11;24519;1357;3027317;-70
2021/12/02 02:33:37;;;;;;;4.60;2.60;;;;;;;-1.44;62.26;98724.95;24539;1355;3026780;-72
2021/12/02 02:36:07;;;;;;;7.20;3.60;;;;;;;-1.42;62.25;98731.27;24538;1351;3054541;-69
2021/12/02 02:38:36;;;;;;;8.20;3.70;;;;;;;-1.46;62.60;98721.56;24485;1357;3026410;-70
2021/12/02 02:41:07;;;;;;;7.60;3.20;;;;;;;-1.35;62.15;98720.96;24494;1350;3030479;-73
2021/12/02 02:43:37;;;;;;;6.70;3.80;;;;;;;-1.49;63.10;98722.16;24512;1352;3055133;-69
2021/12/02 02:46:06;;;;;;;8.00;4.00;;;;;;;-1.48;63.16;98726.94;24549;1354;3026243;-72
2021/12/02 02:48:35;;;;;;;6.00;3.30;;;;;;;-1.57;64.07;98723.37;24527;1354;3051190;-73
2021/12/02 02:51:04;;;;;;;9.60;3.50;;;;;;;-1.54;63.79;98721.94;24506;1351;3026000;-72
2021/12/02 02:53:35;;;;;;;8.30;3.50;;;;;;;-1.56;63.82;98717.66;24517;1355;3057994;-68
2021/12/02 02:56:11;;;;;;;7.60;4.00;;;;;;;-1.59;64.31;98712.61;24539;1353;3026755;-73
2021/12/02 03:09:59;;;;;;;12.90;5.80;;;;;;;-1.42;63.69;98698.11;30730;1365;3028653;-66
2021/12/02 03:12:37;;;;;;;21.00;10.40;;;;;;;-1.22;63.47;98696.75;24406;1361;3052925;-70
2021/12/02 03:17:36;;;;;;;15.90;6.90;;;;;;;-1.27;63.76;98703.23;24436;1357;3027606;-71
2021/12/02 03:20:06;;;;;;;15.50;6.60;;;;;;;-1.44;64.76;98705.55;24403;1363;3026082;-69
2021/12/02 03:22:35;;;;;;;13.10;6.50;;;;;;;-1.48;65.01;98705.11;24199;1363;3181296;-73
2021/12/02 03:25:05;;;;;;;18.30;6.40;;;;;;;-1.56;65.56;98710.98;24417;1362;3026244;-72
2021/12/02 03:27:35;;;;;;;10.80;5.70;;;;;;;-1.59;65.89;98714.13;24386;1363;3051814;-72
2021/12/02 03:30:06;;;;;;;12.80;4.90;;;;;;;-1.65;66.21;98714.11;24398;1357;3026966;-75
2021/12/02 03:32:37;;;;;;;9.60;5.10;;;;;;;-1.66;66.65;98716.89;24447;1355;3026379;-70
2021/12/02 03:35:07;;;;;;;13.70;5.80;;;;;;;-1.68;66.97;98722.41;24425;1357;3026856;-73
2021/12/02 03:37:35;;;;;;;8.90;5.30;;;;;;;-1.74;66.94;98730.63;24384;1361;3026505;-71
2021/12/02 03:40:05;;;;;;;13.50;6.70;;;;;;;-1.83;68.30;98741.82;24406;1357;3026728;-72
2021/12/02 03:42:35;;;;;;;13.40;6.40;;;;;;;-1.96;68.60;98742.95;24476;1360;3051502;-74
2021/12/02 03:45:05;;;;;;;10.80;5.90;;;;;;;-1.97;68.85;98744.16;24446;1355;3026089;-73
2021/12/02 03:47:35;;;;;;;17.70;7.50;;;;;;;-1.93;68.86;98742.04;24450;1357;3026582;-70
2021/12/02 03:50:05;;;;;;;17.60;7.80;;;;;;;-1.90;69.25;98739.55;24463;1360;3026847;-70
2021/12/02 03:52:34;;;;;;;23.50;10.20;;;;;;;-1.85;69.35;98746.32;24481;1360;3055685;-69
2021/12/02 03:55:04;;;;;;;27.60;11.80;;;;;;;-1.96;70.12;98751.01;24452;1357;3026162;-73
2021/12/02 03:57:33;;;;;;;31.30;12.80;;;;;;;-2.08;70.84;98754.35;24442;1355;3026453;-70
2021/12/02 04:00:04;;;;;;;25.70;12.20;;;;;;;-2.26;71.95;98753.01;24417;1355;3026325;-73
2021/12/02 04:02:41;;;;;;;32.80;14.30;;;;;;;-2.26;72.46;98756.61;24413;1356;3056166;-74
2021/12/02 04:05:10;;;;;;;29.10;13.30;;;;;;;-2.21;72.34;98752.39;24387;1355;3026682;-66
2021/12/02 04:07:39;;;;;;;17.80;8.90;;;;;;;-2.25;72.62;98754.86;24412;1360;3049018;-69
2021/12/02 04:10:09;;;;;;;20.20;9.10;;;;;;;-2.33;72.54;98754.00;24436;1360;3026395;-72
2021/12/02 04:15:42;;;;;;;8.30;4.80;;;;;;;-2.36;73.94;98757.65;24326;1360;3061560;-71
2021/12/02 04:18:11;;;;;;;7.70;4.40;;;;;;;-1.63;71.82;98754.75;24421;1360;3053102;-72
2021/12/02 04:20:40;;;;;;;8.30;4.80;;;;;;;-0.96;69.26;98760.40;24460;1360;3026731;-72
2021/12/02 04:23:09;;;;;;;14.70;4.90;;;;;;;-0.87;68.07;98758.45;24450;1362;3059352;-68
2021/12/02 04:25:39;;;;;;;8.10;4.40;;;;;;;-1.01;67.92;98758.30;24419;1357;3026658;-73
2021/12/02 04:28:09;;;;;;;6.80;4.10;;;;;;;-1.31;68.93;98758.16;24395;1361;3051391;-72
2021/12/02 04:30:38;;;;;;;10.70;4.90;;;;;;;-1.34;68.79;98759.95;24438;1355;3028262;-74
2021/12/02 04:33:07;;;;;;;6.00;3.60;;;;;;;-1.41;68.75;98760.62;24429;1356;3051953;-69
2021/12/02 04:35:36;;;;;;;4.60;2.90;;;;;;;-1.52;69.02;98764.65;24421;1357;3026573;-68
2021/12/02 04:38:05;;;;;;;6.00;3.00;;;;;;;-1.61;69.43;98760.39;24425;1358;3026682;-74
2021/12/02 04:40:36;;;;;;;7.70;3.90;;;;;;;-1.64;69.52;98757.88;24409;1360;3052492;-73
2021/12/02 04:43:05;;;;;;;8.20;3.90;;;;;;;-1.76;70.30;98765.34;24416;1363;3026024;-66
2021/12/02 04:45:34;;;;;;;7.10;4.10;;;;;;;-1.82;70.34;98765.65;24480;1359;3028692;-73
2021/12/02 04:48:04;;;;;;;8.60;4.00;;;;;;;-2.00;70.64;98767.40;24430;1360;3027012;-72
2021/12/02 04:50:33;;;;;;;6.90;4.60;;;;;;;-2.11;71.51;98765.23;24398;1360;3054204;-71
2021/12/02 04:53:02;;;;;;;7.90;4.80;;;;;;;-2.07;71.67;98768.75;24400;1362;3026727;-72
2021/12/02 04:55:31;;;;;;;7.90;4.40;;;;;;;-2.05;71.93;98762.52;24378;1363;3026336;-71
2021/12/02 04:58:00;;;;;;;7.60;4.50;;;;;;;-2.06;71.79;98766.99;24484;1356;3053761;-75
2021/12/02 05:00:29;;;;;;;8.50;4.50;;;;;;;-2.10;72.47;98773.95;24421;1360;3026445;-69
2021/12/02 05:02:58;;;;;;;9.30;5.50;;;;;;;-2.13;72.56;98776.59;24453;1355;3051498;-70
2021/12/02 05:05:28;;;;;;;11.00;5.20;;;;;;;-2.13;72.63;98777.63;24415;1360;3026601;-73
2021/12/02 05:07:59;;;;;;;10.50;5.90;;;;;;;-2.16;72.92;98778.38;24425;1361;3026644;-74
2021/12/02 05:10:28;;;;;;;13.20;7.40;;;;;;;-2.22;73.23;98779.35;24446;1359;3051321;-72
2021/12/02 05:12:57;;;;;;;13.10;7.50;;;;;;;-2.17;72.84;98781.66;24453;1357;3026881;-71
2021/12/02 05:15:26;;;;;;;12.60;7.10;;;;;;;-2.12;72.67;98774.16;24453;1363;3049115;-70
2021/12/02 05:17:56;;;;;;;14.70;7.00;;;;;;;-2.17;72.95;98782.86;24442;1359;3026915;-74
2021/12/02 05:20:25;;;;;;;9.40;5.70;;;;;;;-2.17;72.70;98782.15;24418;1360;3026337;-69
2021/12/02 05:22:54;;;;;;;8.60;4.90;;;;;;;-1.59;71.09;98775.63;24420;1360;3047296;-73
2021/12/02 05:25:23;;;;;;;8.00;4.10;;;;;;;-1.03;68.34;98772.61;24460;1360;3026790;-69
2021/12/02 05:28:04;;;;;;;7.70;4.90;;;;;;;-0.78;67.09;98769.90;24399;1363;3071207;-76
2021/12/02 05:30:33;;;;;;;7.90;4.30;;;;;;;-0.89;67.24;98774.16;24475;1360;3026866;-71
2021/12/02 05:33:22;;;;;;;6.60;4.50;;;;;;;-0.94;67.38;98781.66;24435;1363;3053523;-73
2021/12/02 05:35:51;;;;;;;8.80;4.90;;;;;;;-1.04;68.14;98781.06;24440;1360;3026387;-74
2021/12/02 05:38:20;;;;;;;9.40;4.40;;;;;;;-1.10;67.84;98778.63;24459;1357;3027403;-71
2021/12/02 05:40:49;;;;;;;5.90;4.50;;;;;;;-1.22;68.23;98776.16;24431;1360;3049716;-75
2021/12/02 05:43:18;;;;;;;7.50;4.20;;;;;;;-1.11;67.75;98775.20;24384;1356;3026407;-75
2021/12/02 05:45:47;;;;;;;7.40;4.40;;;;;;;-1.13;67.61;98785.21;24467;1355;3054622;-74
2021/12/02 05:48:16;;;;;;;8.40;4.20;;;;;;;-1.25;67.94;98793.57;24470;1360;3028502;-73
2021/12/02 05:50:45;;;;;;;6.60;4.50;;;;;;;-1.18;67.63;98794.29;24452;1357;3048181;-73
2021/12/02 05:53:14;;;;;;;9.30;5.30;;;;;;;-1.17;67.44;98800.63;24454;1362;3026442;-72
2021/12/02 05:59:27;;;;;;;12.90;5.80;;;;;;;-1.09;67.02;98804.88;24411;1355;3052359;-72
2021/12/02 06:01:57;;;;;;;9.10;5.00;;;;;;;-1.00;66.53;98803.65;24492;1351;3026535;-69
2021/12/02 06:04:26;;;;;;;9.80;4.50;;;;;;;-0.96;65.99;98804.24;24401;1358;3057973;-73
2021/12/02 06:06:55;;;;;;;6.80;3.90;;;;;;;-0.88;65.05;98802.34;24446;1360;3026210;-73
2021/12/02 06:09:24;;;;;;;7.40;4.00;;;;;;;-0.87;65.09;98799.03;24456;1355;3026628;-70
2021/12/02 06:11:58;;;;;;;7.70;4.60;;;;;;;-0.92;65.53;98807.41;24462;1360;3058595;-75
2021/12/02 06:14:27;;;;;;;7.00;3.90;;;;;;;-0.82;65.49;98814.22;24403;1360;3028871;-72
2021/12/02 06:16:56;;;;;;;8.70;4.50;;;;;;;-0.73;65.38;98815.20;24433;1357;3026824;-69
2021/12/02 06:19:26;;;;;;;8.30;4.60;;;;;;;-0.75;65.58;98825.38;24505;1360;3058614;-71
2021/12/02 06:21:55;;;;;;;7.90;4.30;;;;;;;-0.79;66.28;98829.27;24410;1357;3026365;-71
2021/12/02 06:24:31;;;;;;;7.90;4.10;;;;;;;-0.88;67.03;98835.16;24415;1360;3054671;-72
2021/12/02 06:27:01;;;;;;;7.60;4.00;;;;;;;-0.76;67.33;98836.08;24500;1358;3056098;-74
2021/12/02 06:29:30;;;;;;;6.90;4.00;;;;;;;-0.65;66.78;98837.20;24456;1358;3026734;-70
2021/12/02 06:31:59;;;;;;;8.30;4.20;;;;;;;-0.59;66.83;98830.69;24454;1359;3026876;-70
2021/12/02 06:34:28;;;;;;;5.70;4.10;;;;;;;-0.62;67.25;98836.27;24467;1363;3026347;-67
2021/12/02 06:36:57;;;;;;;6.50;4.50;;;;;;;-0.60;67.44;98847.73;24434;1360;3052017;-72
2021/12/02 06:39:26;;;;;;;6.60;4.50;;;;;;;-0.66;68.05;98850.81;24466;1360;3026467;-73
2021/12/02 06:41:55;;;;;;;8.90;4.70;;;;;;;-0.71;68.37;98847.64;24428;1356;3056825;-72
2021/12/02 06:44:24;;;;;;;8.20;5.40;;;;;;;-0.69;68.84;98846.76;24417;1359;3026648;-74
2021/12/02 06:46:53;;;;;;;7.20;4.70;;;;;;;-0.69;68.92;98851.38;24404;1359;3054605;-71
2021/12/02 06:49:22;;;;;;;10.90;5.70;;;;;;;-0.76;69.32;98853.28;24483;1356;3026445;-75
2021/12/02 06:51:51;;;;;;;9.50;6.30;;;;;;;-0.70;69.41;98852.27;24446;1357;3052043;-73
2021/12/02 06:54:20;;;;;;;9.00;5.50;;;;;;;-0.67;68.82;98850.65;24450;1358;3027999;-74
2021/12/02 06:56:49;;;;;;;9.90;5.50;;;;;;;-0.59;68.72;98845.98;24425;1360;3051019;-74
2021/12/02 06:59:20;;;;;;;9.10;5.80;;;;;;;-0.37;68.25;98846.46;24431;1361;3027453;-72
2021/12/02 07:01:49;;;;;;;6.50;4.50;;;;;;;-0.28;67.49;98850.19;24471;1357;3026942;-70
2021/12/02 07:04:18;;;;;;;9.80;5.40;;;;;;;-0.19;67.48;98850.45;24410;1358;3050787;-68
2021/12/02 07:06:48;;;;;;;8.00;4.90;;;;;;;-0.15;67.89;98849.16;24418;1358;3027875;-72
2021/12/02 07:09:17;;;;;;;9.70;5.20;;;;;;;-0.04;68.08;98847.13;24469;1362;3027038;-75
2021/12/02 07:11:46;;;;;;;11.80;6.10;;;;;;;-0.02;68.54;98841.75;24418;1357;3026693;-76
2021/12/02 07:14:17;;;;;;;10.10;5.90;;;;;;;-0.17;69.70;98846.80;24463;1360;3054229;-75
2021/12/02 07:16:46;;;;;;;11.50;5.90;;;;;;;-0.03;69.96;98842.98;24503;1359;3026576;-75
2021/12/02 07:19:15;;;;;;;11.60;6.40;;;;;;;0.23;69.33;98843.30;24446;1360;3026617;-70
2021/12/02 07:21:44;;;;;;;12.20;7.30;;;;;;;0.32;69.57;98848.73;24435;1357;3050696;-74
2021/12/02 07:24:14;;;;;;;11.50;7.20;;;;;;;0.26;69.98;98847.67;24518;1358;3028912;-69
2021/12/02 07:26:44;;;;;;;11.50;7.30;;;;;;;0.23;70.65;98850.52;24467;1360;3051780;-72
2021/12/02 07:29:15;;;;;;;14.90;7.70;;;;;;;0.29;71.08;98855.34;24458;1360;3026775;-70
2021/12/02 07:31:44;;;;;;;9.00;6.40;;;;;;;0.41;71.15;98861.37;24426;1356;3026041;-68
2021/12/02 07:34:13;;;;;;;12.40;6.30;;;;;;;0.87;70.32;98867.09;24455;1360;3026151;-77
2021/12/02 07:36:42;;;;;;;10.40;6.90;;;;;;;1.54;68.60;98865.98;24382;1355;3051672;-76
2021/12/02 07:39:16;;;;;;;11.60;7.60;;;;;;;1.61;68.21;98867.14;24438;1363;3055145;-75
2021/12/02 07:41:45;;;;;;;14.10;8.20;;;;;;;1.68;68.07;98870.05;24458;1355;3029421;-71
2021/12/02 07:44:14;;;;;;;10.60;7.30;;;;;;;1.50;69.37;98870.45;24425;1355;3052388;-70
2021/12/02 07:46:43;;;;;;;14.40;8.80;;;;;;;1.56;69.59;98869.58;24407;1360;3026633;-72
2021/12/02 07:49:12;;;;;;;14.90;10.40;;;;;;;1.39;70.61;98877.02;24465;1360;3048817;-76
2021/12/02 07:51:44;;;;;;;20.00;10.80;;;;;;;1.42;71.13;98874.16;24451;1358;3026306;-76
2021/12/02 07:54:14;;;;;;;16.20;10.50;;;;;;;1.29;72.07;98871.98;24442;1360;3026243;-73
2021/12/02 07:56:46;;;;;;;16.30;10.30;;;;;;;1.44;72.12;98871.67;24435;1361;3026594;-72
2021/12/02 07:59:18;;;;;;;18.10;11.10;;;;;;;1.43;72.46;98869.11;24503;1353;3027482;-70
2021/12/02 08:01:46;;;;;;;18.40;11.90;;;;;;;1.42;73.04;98870.36;24436;1357;3026480;-77
2021/12/02 08:04:15;;;;;;;17.80;11.20;;;;;;;1.46;72.96;98864.55;24473;1358;3026558;-71
2021/12/02 08:06:45;;;;;;;17.30;9.40;;;;;;;1.64;72.93;98857.38;24477;1360;3051417;-70
2021/12/02 08:09:15;;;;;;;15.20;9.60;;;;;;;2.20;71.21;98844.20;24473;1357;3028156;-74
2021/12/02 08:11:44;;;;;;;16.00;9.40;;;;;;;2.51;69.77;98844.79;24468;1351;3055512;-74
2021/12/02 08:14:16;;;;;;;18.70;9.00;;;;;;;2.76;69.07;98844.36;24448;1355;3026294;-74
2021/12/02 08:16:45;;;;;;;19.30;10.40;;;;;;;2.84;68.51;98845.61;24537;1355;3026905;-75
2021/12/02 08:19:22;;;;;;;19.90;10.80;;;;;;;2.34;69.60;98843.36;24476;1359;3053674;-73
2021/12/02 08:21:51;;;;;;;17.00;10.50;;;;;;;2.32;69.74;98843.05;24430;1355;3026444;-71
2021/12/02 08:24:23;;;;;;;13.70;9.90;;;;;;;2.41;69.70;98841.02;24403;1354;3052535;-72
2021/12/02 08:26:53;;;;;;;20.70;11.00;;;;;;;2.28;70.03;98842.71;24433;1357;3026483;-71
2021/12/02 08:29:22;;;;;;;21.10;11.80;;;;;;;2.07;71.05;98848.11;24392;1355;3027471;-71
2021/12/02 08:31:51;;;;;;;19.90;11.50;;;;;;;1.97;71.40;98844.31;24394;1357;3027293;-76
2021/12/02 08:34:20;;;;;;;20.00;11.40;;;;;;;1.98;71.69;98835.15;24401;1357;3053574;-68
2021/12/02 08:36:52;;;;;;;17.40;11.20;;;;;;;2.21;71.77;98828.77;24403;1355;3026721;-71
2021/12/02 08:39:27;;;;;;;17.00;11.10;;;;;;;2.41;71.02;98818.73;24409;1355;3027064;-73
2021/12/02 08:41:57;;;;;;;16.80;11.40;;;;;;;2.56;70.27;98816.95;24418;1361;3054761;-71
2021/12/02 08:44:27;;;;;;;18.90;11.80;;;;;;;2.64;69.84;98820.44;24485;1359;3026813;-74
2021/12/02 08:46:56;;;;;;;20.60;11.40;;;;;;;2.77;69.88;98823.24;24414;1359;3028619;-69
2021/12/02 08:49:25;;;;;;;13.70;9.40;;;;;;;2.72;69.36;98826.70;24426;1362;3028530;-72
2021/12/02 08:51:54;;;;;;;17.50;11.40;;;;;;;2.61;69.72;98826.77;24430;1355;3053569;-76
2021/12/02 08:54:23;;;;;;;18.50;10.80;;;;;;;2.79;69.52;98819.67;24418;1359;3027943;-71
2021/12/02 08:56:54;;;;;;;15.30;9.80;;;;;;;3.04;68.49;98809.34;24491;1354;3054513;-70
2021/12/02 08:59:23;;;;;;;16.30;9.70;;;;;;;2.96;68.29;98810.88;24395;1360;3026842;-68
2021/12/02 09:01:52;;;;;;;13.40;9.60;;;;;;;2.78;69.23;98807.77;24502;1359;3027013;-70
2021/12/02 09:04:21;;;;;;;16.10;9.90;;;;;;;2.84;68.51;98803.08;24466;1357;3051639;-70
2021/12/02 09:06:50;;;;;;;11.80;8.90;;;;;;;2.87;68.09;98795.66;24425;1356;3029896;-68
2021/12/02 09:09:19;;;;;;;21.30;10.30;;;;;;;2.84;68.09;98794.95;24434;1354;3049253;-69
2021/12/02 09:11:48;;;;;;;12.10;9.10;;;;;;;2.63;68.71;98792.13;24486;1355;3026073;-68
2021/12/02 09:14:37;;;;;;;13.80;8.80;;;;;;;2.64;68.44;98790.86;24423;1355;3067719;-72
2021/12/02 09:17:06;;;;;;;15.40;9.50;;;;;;;2.75;68.13;98794.24;21003;1352;3030448;-73
2021/12/02 09:19:35;;;;;;;13.50;8.60;;;;;;;2.73;68.23;98794.66;24446;1361;3052572;-71
2021/12/02 09:22:04;;;;;;;12.20;8.90;;;;;;;2.63;68.38;98787.09;24439;1355;3026810;-72
2021/12/02 09:36:38;;;;;;;11.50;7.90;;;;;;;2.74;68.73;98776.63;24463;1361;3048617;-73
2021/12/02 09:39:08;;;;;;;12.80;9.10;;;;;;;2.83;68.54;98770.08;24483;1360;3027349;-73
2021/12/02 09:41:38;;;;;;;13.10;8.40;;;;;;;2.84;68.40;98762.44;24404;1362;3069463;-71
2021/12/02 09:44:07;;;;;;;12.80;8.50;;;;;;;2.94;67.89;98759.41;24440;1358;3028769;-76
2021/12/02 09:46:39;;;;;;;11.20;7.70;;;;;;;2.95;67.79;98755.38;24412;1355;3055119;-72
2021/12/02 09:49:09;;;;;;;11.40;7.80;;;;;;;2.95;67.54;98747.26;24400;1359;3028495;-71
2021/12/02 09:54:18;;;;;;;11.60;8.50;;;;;;;2.97;66.95;98734.21;24463;1357;3056646;-72
2021/12/02 09:56:50;;;;;;;12.30;7.90;;;;;;;3.11;66.60;98732.07;24467;1361;3028408;-71
2021/12/02 09:59:25;;;;;;;9.20;6.10;;;;;;;3.32;65.63;98722.18;24487;1354;3027818;-69
2021/12/02 10:01:59;;;;;;;10.10;6.80;;;;;;;3.35;64.89;98724.16;24459;1355;3052522;-69
2021/12/02 10:04:30;;;;;;;9.90;6.60;;;;;;;3.56;64.58;98712.83;24459;1355;3055309;-71
2021/12/02 10:07:09;;;;;;;11.10;8.10;;;;;;;3.65;63.91;98711.93;24397;1355;3026402;-73
2021/12/02 10:09:51;;;;;;;9.40;7.40;;;;;;;3.79;63.62;98707.17;24367;1360;3068838;-71
2021/12/02 10:12:22;;;;;;;9.00;6.40;;;;;;;3.61;63.59;98708.65;24417;1357;3048387;-72
2021/12/02 10:14:55;;;;;;;13.40;7.10;;;;;;;3.66;63.73;98700.27;24495;1358;3027946;-73
2021/12/02 10:17:39;;;;;;;9.70;6.50;;;;;;;3.78;63.26;98691.80;24403;1360;3028379;-75
2021/12/02 10:20:45;;;;;;;10.90;7.60;;;;;;;3.95;62.65;98691.00;24416;1362;3056816;-71
2021/12/02 10:23:54;;;;;;;8.60;6.00;;;;;;;3.97;63.14;98681.40;24410;1360;3052184;-73
2021/12/02 10:26:18;;;;;;;10.00;6.70;;;;;;;3.89;62.74;98674.67;24415;1360;3056160;-73
2021/12/02 10:28:48;;;;;;;8.50;6.10;;;;;;;3.94;62.62;98674.06;24431;1357;3026879;-72
2021/12/02 10:31:20;;;;;;;9.00;6.10;;;;;;;3.83;62.54;98678.23;24432;1360;3026479;-69
2021/12/02 10:33:53;;;;;;;11.30;6.40;;;;;;;3.86;62.47;98675.84;24438;1360;3028365;-72
2021/12/02 10:36:32;;;;;;;9.60;6.30;;;;;;;3.90;62.44;98665.42;24474;1351;3052675;-69
2021/12/02 10:39:22;;;;;;;8.50;6.30;;;;;;;3.81;63.03;98666.70;24477;1359;3051636;-72
2021/12/02 10:42:05;;;;;;;9.90;6.10;;;;;;;3.77;63.09;98655.27;24417;1360;3059050;-66
2021/12/02 10:44:35;;;;;;;11.60;7.40;;;;;;;3.88;62.56;98655.63;24436;1359;3052484;-72
2021/12/02 10:47:05;;;;;;;8.90;6.60;;;;;;;3.82;62.98;98643.27;24456;1360;3026482;-69
2021/12/02 10:49:37;;;;;;;9.40;6.40;;;;;;;3.74;63.17;98647.30;24442;1361;3026868;-71
2021/12/02 10:52:09;;;;;;;10.90;6.50;;;;;;;3.73;63.38;98640.05;24384;1359;3026729;-69
2021/12/02 10:54:44;;;;;;;11.00;6.40;;;;;;;3.51;64.03;98635.30;24447;1360;3027420;-70
2021/12/02 10:57:20;;;;;;;8.90;6.70;;;;;;;3.57;64.17;98635.90;24448;1360;3052259;-70
2021/12/02 10:59:51;;;;;;;7.90;5.20;;;;;;;3.60;64.24;98625.89;24401;1360;3054415;-71
2021/12/02 11:02:29;;;;;;;8.90;5.70;;;;;;;3.61;64.23;98618.77;24459;1360;3026384;-74
2021/12/02 11:05:10;;;;;;;9.00;5.60;;;;;;;3.64;64.51;98611.19;24383;1353;3049206;-69
2021/12/02 11:07:40;;;;;;;10.00;5.90;;;;;;;3.64;64.66;98608.60;24436;1356;3053419;-74
2021/12/02 11:10:14;;;;;;;8.30;5.40;;;;;;;3.66;64.95;98607.79;24463;1360;3026955;-69
2021/12/02 11:12:48;;;;;;;7.00;5.20;;;;;;;3.64;65.22;98605.81;24417;1361;3027117;-71
2021/12/02 11:15:22;;;;;;;9.20;6.50;;;;;;;3.55;65.81;98608.66;24437;1361;3049558;-70
2021/12/02 11:17:57;;;;;;;9.50;7.00;;;;;;;3.81;65.67;98602.23;24446;1363;3054866;-73
2021/12/02 11:20:29;;;;;;;;;;;;;;;3.94;65.69;98598.91;24432;1358;3051647;-74
2021/12/02 11:23:00;;;;;;;9.90;6.60;;;;;;;4.01;65.87;98592.84;24204;1359;3328503;-70
2021/12/02 11:25:30;;;;;;;12.50;6.90;;;;;;;4.20;65.80;98592.96;24440;1359;3028220;-73
2021/12/02 11:28:03;;;;;;;11.20;6.90;;;;;;;4.20;66.58;98593.82;24419;1363;3028988;-72
2021/12/02 11:30:33;;;;;;;9.80;6.00;;;;;;;4.36;66.56;98590.30;24396;1363;3054048;-72
2021/12/02 11:33:04;;;;;;;10.60;6.90;;;;;;;4.42;66.92;98584.29;24423;1356;3029412;-69
2021/12/02 11:35:42;;;;;;;9.80;5.10;;;;;;;4.53;66.94;98586.48;24457;1357;3026695;-70
2021/12/02 11:38:17;;;;;;;10.30;5.20;;;;;;;4.51;67.26;98577.73;24443;1356;3055539;-72
2021/12/02 11:40:48;;;;;;;11.00;4.80;;;;;;;4.59;67.22;98583.63;24428;1363;3053953;-71
2021/12/02 11:43:19;;;;;;;7.70;4.40;;;;;;;4.61;67.28;98572.02;24418;1357;3027676;-73
2021/12/02 11:45:49;;;;;;;7.60;4.50;;;;;;;4.54;67.43;98568.94;24457;1360;3028907;-72
2021/12/02 11:48:20;;;;;;;8.40;5.00;;;;;;;4.64;67.27;98566.20;24745;1357;3027584;-72
2021/12/02 11:50:55;;;;;;;7.70;4.80;;;;;;;4.54;67.82;98559.05;24469;1364;3026586;-68
2021/12/02 11:53:24;;;;;;;9.20;4.90;;;;;;;4.53;68.19;98560.63;24414;1361;3070746;-71
2021/12/02 11:56:04;;;;;;;9.60;5.20;;;;;;;4.47;68.71;98554.02;24387;1354;3026055;-72
2021/12/02 11:58:34;;;;;;;9.00;4.00;;;;;;;4.53;68.92;98546.27;24427;1361;3053880;-73
2021/12/02 12:01:03;;;;;;;10.30;3.80;;;;;;;5.05;67.92;98545.69;24438;1355;3030285;-72
2021/12/02 12:03:41;;;;;;;7.10;3.70;;;;;;;5.40;66.48;98546.27;24461;1357;3055430;-73
2021/12/02 12:06:14;;;;;;;6.10;3.20;;;;;;;5.58;66.53;98542.33;24464;1354;3051996;-70
2021/12/02 12:08:47;;;;;;;9.70;4.20;;;;;;;5.43;67.06;98549.05;24430;1355;3026207;-75
2021/12/02 12:11:25;;;;;;;8.00;3.90;;;;;;;5.31;67.71;98545.36;24445;1355;3026486;-72
2021/12/02 12:13:56;;;;;;;7.00;4.50;;;;;;;5.15;68.41;98547.94;24447;1361;3054633;-69